Flight Track Log - Related Links

Times and Time Zones

All times are in EDT time to prevent confusion due to time zone crossing. See the UAL5419 flight status page for this flight to view local times or setup timezone preferences in your user account.


Time Position Orientation Groundspeed Altitude Reporting Facility
EDT Latitude Longitude Course Direction KTS MPH feet Rate Location/Type
Sun 02:48:03 PM 42.9500 -87.8833 189° South 151 174 1,200  Level Milwaukee TRACON
Sun 02:48:21 PM 42.9500 -87.8667 90° East 149 171 1,900 2,000 Climbing Milwaukee TRACON
Sun 02:49:21 PM 42.9333 -87.8167 114° Southeast 217 250 3,800 1,838 Climbing Milwaukee TRACON
Sun 02:50:12 PM 42.8847 -87.8653 216° Southwest 228 262 5,300 2,124 Climbing Chicago Center
Sun 02:51:00 PM 42.5537 -87.9010 182° South  Level Estimated
Sun 02:51:14 PM 42.8303 -87.9381 224° Southwest 263 303 7,800  Level Chicago Center
Sun 02:52:00 PM 42.4554 -87.9020 185° South  Level Estimated
Sun 02:52:16 PM 42.7719 -88.0139 224° Southwest 281 323 8,000  Level Chicago Center
Sun 02:53:00 PM 42.3583 -87.9230 189° South  Level FlightAware Approximate
Sun 02:53:18 PM 42.7147 -88.0894 224° Southwest 285 328 8,000  Level Chicago Center
Sun 02:54:20 PM 42.6475 -88.1772 224° Southwest 287 330 8,000  Level Chicago Center
Sun 02:55:22 PM 42.5869 -88.2381 216° Southwest 278 320 8,000  Level Chicago Center
Sun 02:56:24 PM 42.5072 -88.2300 176° South 284 327 8,000 48 Level Chicago Center
Sun 02:57:26 PM 42.4272 -88.2206 175° South 288 331 8,100 48 Climbing Chicago Center
Sun 02:58:28 PM 42.3503 -88.2150 177° South 277 319 8,100 -484 Level Chicago Center
Sun 02:59:30 PM 42.2742 -88.2267 186° South 276 318 7,100 -952 Descending Chicago Center
Sun 03:00:34 PM 42.1986 -88.1689 150° Southeast 263 303 6,100 -905 Descending Chicago Center
Sun 03:01:36 PM 42.1500 -88.1125 139° Southeast 238 274 5,200 -1,016 Descending Chicago Center
Sun 03:02:38 PM 42.1031 -88.0617 141° Southeast 224 258 4,000 -1,381 Descending Chicago Center
Sun 03:03:42 PM 42.0500 -88.0000 139° Southeast 186 214 2,300 -1,594 Descending Chicago TRACON

Login

Don't have an account? Register now (free) for customized features, flight alerts, and more!